Terminal Aerodrome Forecast
Issued by NWS

Home | Current Version | Previous Version | Text Only | Print | Product List | Glossary On
Versions: 1 2 3 4 5 6 7 8 9 10 11 12 13 14 15 16 17
972
FTUS44 KLZK 282340
TAFBPK
TAF
KBPK 282340Z 2900/2924 12008KT P6SM SCT030 BKN060
     FM290500 13009KT P6SM VCSH BKN020 BKN060
     FM290900 14012KT P6SM VCSH OVC015 PROB30 2909/2915 4SM -TSRA BR
      OVC010CB
     FM291500 15008G16KT P6SM VCTS OVC025CB=

USA.gov is the U.S. government's official web portal to all federal, state and local government web resources and services.